sensor_id;sensor_type;location;lat;lon;timestamp;P1;durP1;ratioP1;P2;durP2;ratioP2
13580;SDS011;6861;46.170;7.222;2023-04-25T00:01:49;2.45;;;1.20;;
13580;SDS011;6861;46.170;7.222;2023-04-25T00:04:18;4.25;;;1.23;;
13580;SDS011;6861;46.170;7.222;2023-04-25T00:06:48;3.40;;;1.50;;
13580;SDS011;6861;46.170;7.222;2023-04-25T00:09:16;3.53;;;1.50;;
13580;SDS011;6861;46.170;7.222;2023-04-25T00:11:44;1.45;;;1.20;;
13580;SDS011;6861;46.170;7.222;2023-04-25T00:14:14;3.60;;;1.52;;
13580;SDS011;6861;46.170;7.222;2023-04-25T00:16:43;3.55;;;1.48;;
13580;SDS011;6861;46.170;7.222;2023-04-25T00:19:11;1.73;;;1.40;;
13580;SDS011;6861;46.170;7.222;2023-04-25T00:21:40;4.03;;;1.48;;
13580;SDS011;6861;46.170;7.222;2023-04-25T00:24:08;2.08;;;0.77;;
13580;SDS011;6861;46.170;7.222;2023-04-25T00:26:36;4.90;;;1.73;;
13580;SDS011;6861;46.170;7.222;2023-04-25T00:29:04;2.22;;;1.30;;
13580;SDS011;6861;46.170;7.222;2023-04-25T00:31:34;2.38;;;1.52;;
13580;SDS011;6861;46.170;7.222;2023-04-25T00:34:02;1.85;;;1.25;;
13580;SDS011;6861;46.170;7.222;2023-04-25T00:36:30;4.55;;;1.58;;
13580;SDS011;6861;46.170;7.222;2023-04-25T00:38:58;2.58;;;1.55;;
13580;SDS011;6861;46.170;7.222;2023-04-25T00:41:26;3.50;;;1.50;;
13580;SDS011;6861;46.170;7.222;2023-04-25T00:43:56;2.92;;;1.60;;
13580;SDS011;6861;46.170;7.222;2023-04-25T00:46:25;4.63;;;1.42;;
13580;SDS011;6861;46.170;7.222;2023-04-25T00:48:54;5.57;;;1.48;;
13580;SDS011;6861;46.170;7.222;2023-04-25T00:51:22;3.72;;;1.90;;
13580;SDS011;6861;46.170;7.222;2023-04-25T00:53:52;2.03;;;1.05;;
13580;SDS011;6861;46.170;7.222;2023-04-25T00:56:21;2.13;;;1.60;;
13580;SDS011;6861;46.170;7.222;2023-04-25T00:58:49;2.90;;;1.63;;
13580;SDS011;6861;46.170;7.222;2023-04-25T01:01:20;3.72;;;1.58;;
13580;SDS011;6861;46.170;7.222;2023-04-25T01:03:49;3.17;;;1.90;;
13580;SDS011;6861;46.170;7.222;2023-04-25T01:06:19;2.90;;;1.27;;
13580;SDS011;6861;46.170;7.222;2023-04-25T01:08:49;3.15;;;1.52;;
13580;SDS011;6861;46.170;7.222;2023-04-25T01:11:17;3.72;;;1.65;;
13580;SDS011;6861;46.170;7.222;2023-04-25T01:13:45;2.45;;;1.55;;
13580;SDS011;6861;46.170;7.222;2023-04-25T01:16:14;3.97;;;1.85;;
13580;SDS011;6861;46.170;7.222;2023-04-25T01:18:42;3.85;;;1.83;;
13580;SDS011;6861;46.170;7.222;2023-04-25T01:21:13;2.65;;;1.63;;
13580;SDS011;6861;46.170;7.222;2023-04-25T01:23:41;2.72;;;1.70;;
13580;SDS011;6861;46.170;7.222;2023-04-25T01:26:10;3.08;;;1.77;;
13580;SDS011;6861;46.170;7.222;2023-04-25T01:28:39;3.47;;;1.35;;
13580;SDS011;6861;46.170;7.222;2023-04-25T01:31:08;4.03;;;1.48;;
13580;SDS011;6861;46.170;7.222;2023-04-25T01:33:36;3.83;;;1.45;;
13580;SDS011;6861;46.170;7.222;2023-04-25T01:36:05;3.40;;;1.58;;
13580;SDS011;6861;46.170;7.222;2023-04-25T01:38:35;3.03;;;1.60;;
13580;SDS011;6861;46.170;7.222;2023-04-25T01:41:03;2.67;;;1.48;;
13580;SDS011;6861;46.170;7.222;2023-04-25T01:43:33;2.10;;;1.65;;
13580;SDS011;6861;46.170;7.222;2023-04-25T01:46:01;3.30;;;1.50;;
13580;SDS011;6861;46.170;7.222;2023-04-25T01:48:30;2.75;;;1.20;;
13580;SDS011;6861;46.170;7.222;2023-04-25T01:50:58;5.05;;;1.65;;
13580;SDS011;6861;46.170;7.222;2023-04-25T01:53:26;5.03;;;1.20;;
13580;SDS011;6861;46.170;7.222;2023-04-25T01:55:56;6.10;;;1.98;;
13580;SDS011;6861;46.170;7.222;2023-04-25T01:58:24;2.50;;;1.50;;
13580;SDS011;6861;46.170;7.222;2023-04-25T02:00:52;3.47;;;1.50;;
13580;SDS011;6861;46.170;7.222;2023-04-25T02:03:20;4.43;;;1.38;;
13580;SDS011;6861;46.170;7.222;2023-04-25T02:05:49;3.95;;;1.40;;
13580;SDS011;6861;46.170;7.222;2023-04-25T02:08:17;2.15;;;1.30;;
13580;SDS011;6861;46.170;7.222;2023-04-25T02:10:45;2.53;;;1.25;;
13580;SDS011;6861;46.170;7.222;2023-04-25T02:13:14;1.60;;;1.15;;
13580;SDS011;6861;46.170;7.222;2023-04-25T02:15:43;1.65;;;1.15;;
13580;SDS011;6861;46.170;7.222;2023-04-25T02:18:11;2.22;;;1.30;;
13580;SDS011;6861;46.170;7.222;2023-04-25T02:20:39;2.13;;;1.15;;
13580;SDS011;6861;46.170;7.222;2023-04-25T02:23:07;1.40;;;1.13;;
13580;SDS011;6861;46.170;7.222;2023-04-25T02:25:35;1.65;;;1.25;;
13580;SDS011;6861;46.170;7.222;2023-04-25T02:28:03;1.92;;;1.10;;
13580;SDS011;6861;46.170;7.222;2023-04-25T02:30:33;3.55;;;1.35;;
13580;SDS011;6861;46.170;7.222;2023-04-25T02:33:01;2.05;;;1.08;;
13580;SDS011;6861;46.170;7.222;2023-04-25T02:35:29;2.80;;;1.30;;
13580;SDS011;6861;46.170;7.222;2023-04-25T02:37:58;1.73;;;1.30;;
13580;SDS011;6861;46.170;7.222;2023-04-25T02:40:26;2.33;;;1.40;;
13580;SDS011;6861;46.170;7.222;2023-04-25T02:42:54;2.05;;;1.50;;
13580;SDS011;6861;46.170;7.222;2023-04-25T02:45:22;3.13;;;1.50;;
13580;SDS011;6861;46.170;7.222;2023-04-25T02:47:52;3.15;;;1.65;;
13580;SDS011;6861;46.170;7.222;2023-04-25T02:50:20;2.05;;;1.27;;
13580;SDS011;6861;46.170;7.222;2023-04-25T02:52:48;2.85;;;1.55;;
13580;SDS011;6861;46.170;7.222;2023-04-25T02:55:17;2.38;;;1.40;;
13580;SDS011;6861;46.170;7.222;2023-04-25T02:57:45;3.30;;;1.65;;
13580;SDS011;6861;46.170;7.222;2023-04-25T03:00:13;3.70;;;1.45;;
13580;SDS011;6861;46.170;7.222;2023-04-25T03:02:42;3.70;;;1.58;;
13580;SDS011;6861;46.170;7.222;2023-04-25T03:05:11;4.20;;;1.63;;
13580;SDS011;6861;46.170;7.222;2023-04-25T03:07:39;4.15;;;1.40;;
13580;SDS011;6861;46.170;7.222;2023-04-25T03:10:10;2.13;;;1.45;;
13580;SDS011;6861;46.170;7.222;2023-04-25T03:12:38;2.72;;;1.58;;
13580;SDS011;6861;46.170;7.222;2023-04-25T03:15:06;5.03;;;1.58;;
13580;SDS011;6861;46.170;7.222;2023-04-25T03:17:35;3.20;;;1.58;;
13580;SDS011;6861;46.170;7.222;2023-04-25T03:20:03;1.90;;;1.33;;
13580;SDS011;6861;46.170;7.222;2023-04-25T03:22:36;3.47;;;1.60;;
13580;SDS011;6861;46.170;7.222;2023-04-25T03:25:04;3.70;;;1.70;;
13580;SDS011;6861;46.170;7.222;2023-04-25T03:27:33;3.53;;;1.73;;
13580;SDS011;6861;46.170;7.222;2023-04-25T03:30:01;3.53;;;1.85;;
13580;SDS011;6861;46.170;7.222;2023-04-25T03:32:30;3.83;;;1.85;;
13580;SDS011;6861;46.170;7.222;2023-04-25T03:34:58;3.80;;;1.83;;
13580;SDS011;6861;46.170;7.222;2023-04-25T03:37:26;5.82;;;2.17;;
13580;SDS011;6861;46.170;7.222;2023-04-25T03:39:56;4.07;;;1.80;;
13580;SDS011;6861;46.170;7.222;2023-04-25T03:42:24;5.65;;;1.98;;
13580;SDS011;6861;46.170;7.222;2023-04-25T03:44:52;5.55;;;1.90;;
13580;SDS011;6861;46.170;7.222;2023-04-25T03:47:20;3.13;;;1.83;;
13580;SDS011;6861;46.170;7.222;2023-04-25T03:49:48;3.95;;;2.00;;
13580;SDS011;6861;46.170;7.222;2023-04-25T03:52:18;5.75;;;1.90;;
13580;SDS011;6861;46.170;7.222;2023-04-25T03:54:46;4.93;;;1.95;;
13580;SDS011;6861;46.170;7.222;2023-04-25T03:57:15;3.83;;;1.88;;
13580;SDS011;6861;46.170;7.222;2023-04-25T03:59:43;3.95;;;1.98;;
13580;SDS011;6861;46.170;7.222;2023-04-25T04:02:11;3.78;;;2.33;;
13580;SDS011;6861;46.170;7.222;2023-04-25T04:04:40;5.47;;;1.85;;
13580;SDS011;6861;46.170;7.222;2023-04-25T04:07:11;2.95;;;2.10;;
13580;SDS011;6861;46.170;7.222;2023-04-25T04:09:39;3.80;;;2.10;;
13580;SDS011;6861;46.170;7.222;2023-04-25T04:12:07;4.63;;;1.75;;
13580;SDS011;6861;46.170;7.222;2023-04-25T04:14:36;3.05;;;1.80;;
13580;SDS011;6861;46.170;7.222;2023-04-25T04:17:04;2.75;;;1.70;;
13580;SDS011;6861;46.170;7.222;2023-04-25T04:19:33;3.20;;;2.00;;
13580;SDS011;6861;46.170;7.222;2023-04-25T04:22:01;2.33;;;1.63;;
13580;SDS011;6861;46.170;7.222;2023-04-25T04:24:29;3.65;;;2.20;;
13580;SDS011;6861;46.170;7.222;2023-04-25T04:26:57;4.20;;;2.00;;
13580;SDS011;6861;46.170;7.222;2023-04-25T04:29:26;3.65;;;1.70;;
13580;SDS011;6861;46.170;7.222;2023-04-25T04:31:56;4.72;;;2.30;;
13580;SDS011;6861;46.170;7.222;2023-04-25T04:34:24;2.85;;;1.60;;
13580;SDS011;6861;46.170;7.222;2023-04-25T04:36:53;4.18;;;2.17;;
13580;SDS011;6861;46.170;7.222;2023-04-25T04:39:21;3.55;;;1.90;;
13580;SDS011;6861;46.170;7.222;2023-04-25T04:41:49;2.85;;;2.00;;
13580;SDS011;6861;46.170;7.222;2023-04-25T04:44:17;3.35;;;1.73;;
13580;SDS011;6861;46.170;7.222;2023-04-25T04:46:46;4.35;;;1.70;;
13580;SDS011;6861;46.170;7.222;2023-04-25T04:49:16;3.45;;;1.90;;
13580;SDS011;6861;46.170;7.222;2023-04-25T04:51:44;2.30;;;1.60;;
13580;SDS011;6861;46.170;7.222;2023-04-25T04:54:13;4.65;;;1.85;;
13580;SDS011;6861;46.170;7.222;2023-04-25T04:56:41;2.67;;;1.80;;
13580;SDS011;6861;46.170;7.222;2023-04-25T04:59:09;2.00;;;1.50;;
13580;SDS011;6861;46.170;7.222;2023-04-25T05:01:38;2.00;;;1.30;;
13580;SDS011;6861;46.170;7.222;2023-04-25T05:04:06;2.53;;;1.48;;
13580;SDS011;6861;46.170;7.222;2023-04-25T05:06:35;1.20;;;1.10;;
13580;SDS011;6861;46.170;7.222;2023-04-25T05:09:04;2.58;;;1.35;;
13580;SDS011;6861;46.170;7.222;2023-04-25T05:11:32;2.45;;;1.33;;
13580;SDS011;6861;46.170;7.222;2023-04-25T05:14:00;2.45;;;1.38;;
13580;SDS011;6861;46.170;7.222;2023-04-25T05:16:28;1.70;;;1.27;;
13580;SDS011;6861;46.170;7.222;2023-04-25T05:18:57;3.47;;;1.45;;
13580;SDS011;6861;46.170;7.222;2023-04-25T05:21:25;1.95;;;1.20;;
13580;SDS011;6861;46.170;7.222;2023-04-25T05:23:55;3.08;;;1.40;;
13580;SDS011;6861;46.170;7.222;2023-04-25T05:26:23;1.42;;;0.90;;
13580;SDS011;6861;46.170;7.222;2023-04-25T05:28:51;1.95;;;1.30;;
13580;SDS011;6861;46.170;7.222;2023-04-25T05:31:19;1.17;;;0.90;;
13580;SDS011;6861;46.170;7.222;2023-04-25T05:33:47;2.50;;;1.35;;
13580;SDS011;6861;46.170;7.222;2023-04-25T05:36:16;1.63;;;0.90;;
13580;SDS011;6861;46.170;7.222;2023-04-25T05:38:44;1.30;;;1.08;;
13580;SDS011;6861;46.170;7.222;2023-04-25T05:41:13;0.95;;;0.90;;
13580;SDS011;6861;46.170;7.222;2023-04-25T05:43:42;2.67;;;1.27;;
13580;SDS011;6861;46.170;7.222;2023-04-25T05:46:13;1.55;;;0.90;;
13580;SDS011;6861;46.170;7.222;2023-04-25T05:48:42;1.42;;;1.00;;
13580;SDS011;6861;46.170;7.222;2023-04-25T05:51:10;0.82;;;0.82;;
13580;SDS011;6861;46.170;7.222;2023-04-25T05:53:38;2.92;;;1.00;;
13580;SDS011;6861;46.170;7.222;2023-04-25T05:56:07;1.83;;;0.88;;
13580;SDS011;6861;46.170;7.222;2023-04-25T05:58:36;1.77;;;0.90;;
13580;SDS011;6861;46.170;7.222;2023-04-25T06:01:05;2.42;;;1.10;;
13580;SDS011;6861;46.170;7.222;2023-04-25T06:03:33;1.63;;;0.98;;
13580;SDS011;6861;46.170;7.222;2023-04-25T06:06:02;2.45;;;0.98;;
13580;SDS011;6861;46.170;7.222;2023-04-25T06:08:31;1.63;;;1.02;;
13580;SDS011;6861;46.170;7.222;2023-04-25T06:10:59;2.05;;;1.00;;
13580;SDS011;6861;46.170;7.222;2023-04-25T06:13:28;1.30;;;0.90;;
13580;SDS011;6861;46.170;7.222;2023-04-25T06:15:57;1.15;;;0.70;;
13580;SDS011;6861;46.170;7.222;2023-04-25T06:18:25;1.77;;;1.00;;
13580;SDS011;6861;46.170;7.222;2023-04-25T06:20:54;0.70;;;0.70;;
13580;SDS011;6861;46.170;7.222;2023-04-25T06:23:22;1.48;;;0.68;;
13580;SDS011;6861;46.170;7.222;2023-04-25T06:25:50;1.38;;;0.68;;
13580;SDS011;6861;46.170;7.222;2023-04-25T06:28:18;0.80;;;0.68;;
13580;SDS011;6861;46.170;7.222;2023-04-25T06:30:48;0.95;;;0.77;;
13580;SDS011;6861;46.170;7.222;2023-04-25T06:33:18;0.60;;;0.50;;
13580;SDS011;6861;46.170;7.222;2023-04-25T06:35:46;6.20;;;3.90;;
13580;SDS011;6861;46.170;7.222;2023-04-25T06:38:15;8.63;;;4.75;;
13580;SDS011;6861;46.170;7.222;2023-04-25T06:40:43;2.45;;;1.30;;
13580;SDS011;6861;46.170;7.222;2023-04-25T06:43:11;1.52;;;0.85;;
13580;SDS011;6861;46.170;7.222;2023-04-25T06:45:39;2.70;;;2.20;;
13580;SDS011;6861;46.170;7.222;2023-04-25T06:48:09;2.45;;;1.00;;
13580;SDS011;6861;46.170;7.222;2023-04-25T06:50:39;1.48;;;0.80;;
13580;SDS011;6861;46.170;7.222;2023-04-25T06:53:07;1.13;;;1.00;;
13580;SDS011;6861;46.170;7.222;2023-04-25T06:55:35;1.20;;;0.80;;
13580;SDS011;6861;46.170;7.222;2023-04-25T06:58:03;1.13;;;0.70;;
13580;SDS011;6861;46.170;7.222;2023-04-25T07:00:31;3.17;;;1.00;;
13580;SDS011;6861;46.170;7.222;2023-04-25T07:03:00;1.00;;;0.80;;
13580;SDS011;6861;46.170;7.222;2023-04-25T07:05:28;1.00;;;0.60;;
13580;SDS011;6861;46.170;7.222;2023-04-25T07:07:58;1.25;;;1.08;;
13580;SDS011;6861;46.170;7.222;2023-04-25T07:10:27;0.93;;;0.80;;
13580;SDS011;6861;46.170;7.222;2023-04-25T07:12:55;1.52;;;0.80;;
13580;SDS011;6861;46.170;7.222;2023-04-25T07:15:23;2.38;;;0.70;;
13580;SDS011;6861;46.170;7.222;2023-04-25T07:17:52;0.70;;;0.68;;
13580;SDS011;6861;46.170;7.222;2023-04-25T07:20:20;0.85;;;0.82;;
13580;SDS011;6861;46.170;7.222;2023-04-25T07:22:48;1.95;;;0.82;;
13580;SDS011;6861;46.170;7.222;2023-04-25T07:25:19;1.25;;;0.80;;
13580;SDS011;6861;46.170;7.222;2023-04-25T07:27:47;1.10;;;0.80;;
13580;SDS011;6861;46.170;7.222;2023-04-25T07:30:15;1.48;;;0.80;;
13580;SDS011;6861;46.170;7.222;2023-04-25T07:32:43;1.48;;;0.98;;
13580;SDS011;6861;46.170;7.222;2023-04-25T07:35:11;1.25;;;0.90;;
13580;SDS011;6861;46.170;7.222;2023-04-25T07:37:40;2.55;;;1.30;;
13580;SDS011;6861;46.170;7.222;2023-04-25T07:40:08;2.60;;;1.00;;
13580;SDS011;6861;46.170;7.222;2023-04-25T07:42:38;1.60;;;1.33;;
13580;SDS011;6861;46.170;7.222;2023-04-25T07:45:07;1.75;;;1.00;;
13580;SDS011;6861;46.170;7.222;2023-04-25T07:47:36;4.20;;;0.90;;
13580;SDS011;6861;46.170;7.222;2023-04-25T07:50:05;1.10;;;0.88;;
13580;SDS011;6861;46.170;7.222;2023-04-25T07:52:34;1.15;;;0.98;;
13580;SDS011;6861;46.170;7.222;2023-04-25T07:55:02;2.47;;;0.80;;
13580;SDS011;6861;46.170;7.222;2023-04-25T07:57:31;1.23;;;0.88;;
13580;SDS011;6861;46.170;7.222;2023-04-25T08:00:01;2.42;;;2.22;;
13580;SDS011;6861;46.170;7.222;2023-04-25T08:02:29;1.20;;;1.08;;
13580;SDS011;6861;46.170;7.222;2023-04-25T08:04:57;1.52;;;0.60;;
13580;SDS011;6861;46.170;7.222;2023-04-25T08:07:25;1.95;;;1.52;;
13580;SDS011;6861;46.170;7.222;2023-04-25T08:09:54;1.55;;;0.88;;
13580;SDS011;6861;46.170;7.222;2023-04-25T08:12:22;1.48;;;0.93;;
13580;SDS011;6861;46.170;7.222;2023-04-25T08:14:50;1.30;;;0.93;;
13580;SDS011;6861;46.170;7.222;2023-04-25T08:17:20;1.58;;;1.02;;
13580;SDS011;6861;46.170;7.222;2023-04-25T08:19:48;0.75;;;0.75;;
13580;SDS011;6861;46.170;7.222;2023-04-25T08:22:16;1.13;;;0.88;;
13580;SDS011;6861;46.170;7.222;2023-04-25T08:24:44;1.55;;;1.00;;
13580;SDS011;6861;46.170;7.222;2023-04-25T08:27:12;2.47;;;0.80;;
13580;SDS011;6861;46.170;7.222;2023-04-25T08:29:41;2.88;;;0.90;;
13580;SDS011;6861;46.170;7.222;2023-04-25T08:32:09;2.60;;;1.20;;
13580;SDS011;6861;46.170;7.222;2023-04-25T08:34:39;1.20;;;0.90;;
13580;SDS011;6861;46.170;7.222;2023-04-25T08:37:08;2.78;;;0.85;;
13580;SDS011;6861;46.170;7.222;2023-04-25T08:39:37;1.10;;;0.85;;
13580;SDS011;6861;46.170;7.222;2023-04-25T08:42:06;1.23;;;0.93;;
13580;SDS011;6861;46.170;7.222;2023-04-25T08:44:35;1.40;;;0.90;;
13580;SDS011;6861;46.170;7.222;2023-04-25T08:47:04;0.82;;;0.80;;
13580;SDS011;6861;46.170;7.222;2023-04-25T08:49:32;1.00;;;0.68;;
13580;SDS011;6861;46.170;7.222;2023-04-25T08:52:03;2.25;;;0.93;;
13580;SDS011;6861;46.170;7.222;2023-04-25T08:54:33;1.17;;;0.90;;
13580;SDS011;6861;46.170;7.222;2023-04-25T08:57:05;1.02;;;0.85;;
13580;SDS011;6861;46.170;7.222;2023-04-25T08:59:34;4.20;;;1.15;;
13580;SDS011;6861;46.170;7.222;2023-04-25T09:02:05;0.80;;;0.70;;
13580;SDS011;6861;46.170;7.222;2023-04-25T09:04:34;0.93;;;0.60;;
13580;SDS011;6861;46.170;7.222;2023-04-25T09:07:05;1.60;;;0.90;;
13580;SDS011;6861;46.170;7.222;2023-04-25T09:09:33;1.00;;;0.80;;
13580;SDS011;6861;46.170;7.222;2023-04-25T09:12:02;1.50;;;0.90;;
13580;SDS011;6861;46.170;7.222;2023-04-25T09:14:30;0.68;;;0.60;;
13580;SDS011;6861;46.170;7.222;2023-04-25T09:16:59;2.55;;;0.70;;
13580;SDS011;6861;46.170;7.222;2023-04-25T09:19:30;1.45;;;0.70;;
13580;SDS011;6861;46.170;7.222;2023-04-25T09:22:08;1.17;;;0.88;;
13580;SDS011;6861;46.170;7.222;2023-04-25T09:24:37;0.85;;;0.70;;
13580;SDS011;6861;46.170;7.222;2023-04-25T09:27:07;0.95;;;0.73;;
13580;SDS011;6861;46.170;7.222;2023-04-25T09:29:37;0.95;;;0.70;;
13580;SDS011;6861;46.170;7.222;2023-04-25T09:32:11;1.65;;;1.15;;
13580;SDS011;6861;46.170;7.222;2023-04-25T09:34:42;2.72;;;1.60;;
13580;SDS011;6861;46.170;7.222;2023-04-25T09:37:19;1.42;;;0.90;;
13580;SDS011;6861;46.170;7.222;2023-04-25T09:39:48;1.80;;;1.00;;
13580;SDS011;6861;46.170;7.222;2023-04-25T09:42:18;1.70;;;0.80;;
13580;SDS011;6861;46.170;7.222;2023-04-25T09:44:51;2.13;;;1.00;;
13580;SDS011;6861;46.170;7.222;2023-04-25T09:47:20;1.38;;;0.90;;
13580;SDS011;6861;46.170;7.222;2023-04-25T09:49:50;2.45;;;1.25;;
13580;SDS011;6861;46.170;7.222;2023-04-25T09:52:21;4.45;;;1.23;;
13580;SDS011;6861;46.170;7.222;2023-04-25T09:54:51;3.22;;;1.20;;
13580;SDS011;6861;46.170;7.222;2023-04-25T09:57:21;1.90;;;1.00;;
13580;SDS011;6861;46.170;7.222;2023-04-25T09:59:50;1.45;;;1.08;;
13580;SDS011;6861;46.170;7.222;2023-04-25T10:02:20;2.42;;;1.08;;
13580;SDS011;6861;46.170;7.222;2023-04-25T10:04:49;1.40;;;0.90;;
13580;SDS011;6861;46.170;7.222;2023-04-25T10:07:23;2.70;;;1.17;;
13580;SDS011;6861;46.170;7.222;2023-04-25T10:09:55;1.55;;;1.15;;
13580;SDS011;6861;46.170;7.222;2023-04-25T10:12:28;1.35;;;1.15;;
13580;SDS011;6861;46.170;7.222;2023-04-25T10:14:57;2.53;;;0.98;;
13580;SDS011;6861;46.170;7.222;2023-04-25T10:17:26;2.72;;;1.00;;
13580;SDS011;6861;46.170;7.222;2023-04-25T10:19:55;2.08;;;1.00;;
13580;SDS011;6861;46.170;7.222;2023-04-25T10:22:29;1.10;;;0.80;;
13580;SDS011;6861;46.170;7.222;2023-04-25T10:25:00;4.10;;;1.13;;
13580;SDS011;6861;46.170;7.222;2023-04-25T10:27:30;1.42;;;1.00;;
13580;SDS011;6861;46.170;7.222;2023-04-25T10:30:02;1.50;;;1.17;;
13580;SDS011;6861;46.170;7.222;2023-04-25T10:32:32;1.98;;;1.10;;
13580;SDS011;6861;46.170;7.222;2023-04-25T10:35:11;2.28;;;0.82;;
13580;SDS011;6861;46.170;7.222;2023-04-25T10:40:32;1.48;;;1.00;;
13580;SDS011;6861;46.170;7.222;2023-04-25T10:46:02;4.72;;;1.02;;
13580;SDS011;6861;46.170;7.222;2023-04-25T10:48:44;2.45;;;0.93;;
13580;SDS011;6861;46.170;7.222;2023-04-25T10:51:18;1.40;;;0.80;;
13580;SDS011;6861;46.170;7.222;2023-04-25T10:53:58;1.25;;;0.80;;
13580;SDS011;6861;46.170;7.222;2023-04-25T10:56:28;1.30;;;0.73;;
13580;SDS011;6861;46.170;7.222;2023-04-25T10:59:07;2.00;;;0.90;;
13580;SDS011;6861;46.170;7.222;2023-04-25T11:01:38;2.08;;;0.98;;
13580;SDS011;6861;46.170;7.222;2023-04-25T11:04:18;1.83;;;0.73;;
13580;SDS011;6861;46.170;7.222;2023-04-25T11:06:53;3.00;;;0.70;;
13580;SDS011;6861;46.170;7.222;2023-04-25T11:09:34;1.88;;;0.80;;
13580;SDS011;6861;46.170;7.222;2023-04-25T11:12:03;0.93;;;0.77;;
13580;SDS011;6861;46.170;7.222;2023-04-25T11:14:32;3.13;;;0.77;;
13580;SDS011;6861;46.170;7.222;2023-04-25T11:17:00;3.15;;;1.10;;
13580;SDS011;6861;46.170;7.222;2023-04-25T11:19:29;2.85;;;1.20;;
13580;SDS011;6861;46.170;7.222;2023-04-25T11:21:57;2.30;;;1.02;;
13580;SDS011;6861;46.170;7.222;2023-04-25T11:24:27;4.18;;;1.27;;
13580;SDS011;6861;46.170;7.222;2023-04-25T11:26:57;7.78;;;1.60;;
13580;SDS011;6861;46.170;7.222;2023-04-25T11:29:26;7.40;;;1.48;;
13580;SDS011;6861;46.170;7.222;2023-04-25T11:31:55;8.18;;;1.27;;
13580;SDS011;6861;46.170;7.222;2023-04-25T11:34:25;4.38;;;1.75;;
13580;SDS011;6861;46.170;7.222;2023-04-25T11:36:53;7.55;;;1.60;;
13580;SDS011;6861;46.170;7.222;2023-04-25T11:39:21;4.00;;;1.45;;
13580;SDS011;6861;46.170;7.222;2023-04-25T11:41:51;4.53;;;1.00;;
13580;SDS011;6861;46.170;7.222;2023-04-25T11:44:21;3.75;;;1.08;;
13580;SDS011;6861;46.170;7.222;2023-04-25T11:46:50;2.22;;;1.25;;
13580;SDS011;6861;46.170;7.222;2023-04-25T11:49:18;2.33;;;1.00;;
13580;SDS011;6861;46.170;7.222;2023-04-25T11:51:48;1.50;;;0.95;;
13580;SDS011;6861;46.170;7.222;2023-04-25T11:54:16;1.85;;;1.17;;
13580;SDS011;6861;46.170;7.222;2023-04-25T11:56:45;1.95;;;1.00;;
13580;SDS011;6861;46.170;7.222;2023-04-25T11:59:14;2.17;;;1.17;;
13580;SDS011;6861;46.170;7.222;2023-04-25T12:01:48;1.67;;;0.90;;
13580;SDS011;6861;46.170;7.222;2023-04-25T12:04:18;2.28;;;1.00;;
13580;SDS011;6861;46.170;7.222;2023-04-25T12:06:48;2.15;;;0.80;;
13580;SDS011;6861;46.170;7.222;2023-04-25T12:09:19;1.65;;;0.98;;
13580;SDS011;6861;46.170;7.222;2023-04-25T12:11:52;1.55;;;1.10;;
13580;SDS011;6861;46.170;7.222;2023-04-25T12:14:22;1.42;;;1.00;;
13580;SDS011;6861;46.170;7.222;2023-04-25T12:16:54;2.28;;;0.90;;
13580;SDS011;6861;46.170;7.222;2023-04-25T12:19:24;1.17;;;0.90;;
13580;SDS011;6861;46.170;7.222;2023-04-25T12:21:52;1.15;;;0.90;;
13580;SDS011;6861;46.170;7.222;2023-04-25T12:24:25;2.30;;;1.00;;
13580;SDS011;6861;46.170;7.222;2023-04-25T12:26:58;2.35;;;0.90;;
13580;SDS011;6861;46.170;7.222;2023-04-25T12:29:29;1.20;;;1.00;;
13580;SDS011;6861;46.170;7.222;2023-04-25T12:32:15;2.20;;;1.00;;
13580;SDS011;6861;46.170;7.222;2023-04-25T12:34:43;1.92;;;0.90;;
13580;SDS011;6861;46.170;7.222;2023-04-25T12:37:12;1.38;;;0.90;;
13580;SDS011;6861;46.170;7.222;2023-04-25T12:39:41;3.92;;;0.73;;
13580;SDS011;6861;46.170;7.222;2023-04-25T12:42:09;1.17;;;0.75;;
13580;SDS011;6861;46.170;7.222;2023-04-25T12:44:39;1.85;;;0.88;;
13580;SDS011;6861;46.170;7.222;2023-04-25T12:47:07;1.00;;;0.73;;
13580;SDS011;6861;46.170;7.222;2023-04-25T12:49:37;1.48;;;0.80;;
13580;SDS011;6861;46.170;7.222;2023-04-25T12:52:06;1.38;;;0.80;;
13580;SDS011;6861;46.170;7.222;2023-04-25T12:54:34;1.60;;;0.90;;
13580;SDS011;6861;46.170;7.222;2023-04-25T12:57:02;2.13;;;0.95;;
13580;SDS011;6861;46.170;7.222;2023-04-25T12:59:31;2.50;;;1.00;;
13580;SDS011;6861;46.170;7.222;2023-04-25T13:01:59;2.35;;;0.80;;
13580;SDS011;6861;46.170;7.222;2023-04-25T13:04:27;1.55;;;0.85;;
13580;SDS011;6861;46.170;7.222;2023-04-25T13:06:57;2.30;;;0.75;;
13580;SDS011;6861;46.170;7.222;2023-04-25T13:09:25;2.22;;;0.90;;
13580;SDS011;6861;46.170;7.222;2023-04-25T13:11:53;1.85;;;0.80;;
13580;SDS011;6861;46.170;7.222;2023-04-25T13:14:24;0.80;;;0.80;;
13580;SDS011;6861;46.170;7.222;2023-04-25T13:16:52;2.22;;;0.75;;
13580;SDS011;6861;46.170;7.222;2023-04-25T13:19:21;3.00;;;1.15;;
13580;SDS011;6861;46.170;7.222;2023-04-25T13:21:49;2.17;;;0.93;;
13580;SDS011;6861;46.170;7.222;2023-04-25T13:24:19;4.10;;;1.00;;
13580;SDS011;6861;46.170;7.222;2023-04-25T13:26:47;4.05;;;1.00;;
13580;SDS011;6861;46.170;7.222;2023-04-25T13:29:15;1.05;;;0.70;;
13580;SDS011;6861;46.170;7.222;2023-04-25T13:31:43;1.95;;;1.00;;
13580;SDS011;6861;46.170;7.222;2023-04-25T13:34:11;1.15;;;0.80;;
13580;SDS011;6861;46.170;7.222;2023-04-25T13:36:40;1.30;;;1.00;;
13580;SDS011;6861;46.170;7.222;2023-04-25T13:39:08;1.00;;;0.90;;
13580;SDS011;6861;46.170;7.222;2023-04-25T13:41:39;1.23;;;1.00;;
13580;SDS011;6861;46.170;7.222;2023-04-25T13:44:07;2.80;;;0.90;;
13580;SDS011;6861;46.170;7.222;2023-04-25T13:46:35;1.65;;;1.05;;
13580;SDS011;6861;46.170;7.222;2023-04-25T13:49:12;2.92;;;1.00;;
13580;SDS011;6861;46.170;7.222;2023-04-25T13:51:40;1.98;;;1.10;;
13580;SDS011;6861;46.170;7.222;2023-04-25T13:54:09;1.17;;;0.95;;
13580;SDS011;6861;46.170;7.222;2023-04-25T13:56:38;2.25;;;1.00;;
13580;SDS011;6861;46.170;7.222;2023-04-25T13:59:08;2.05;;;0.93;;
13580;SDS011;6861;46.170;7.222;2023-04-25T14:01:37;1.63;;;0.80;;
13580;SDS011;6861;46.170;7.222;2023-04-25T14:04:05;2.33;;;0.93;;
13580;SDS011;6861;46.170;7.222;2023-04-25T14:06:33;1.33;;;0.90;;
13580;SDS011;6861;46.170;7.222;2023-04-25T14:09:02;3.50;;;0.90;;
13580;SDS011;6861;46.170;7.222;2023-04-25T14:11:31;1.10;;;0.80;;
13580;SDS011;6861;46.170;7.222;2023-04-25T14:14:00;2.15;;;1.20;;
13580;SDS011;6861;46.170;7.222;2023-04-25T14:16:29;3.70;;;0.80;;
13580;SDS011;6861;46.170;7.222;2023-04-25T14:18:57;1.55;;;0.90;;
13580;SDS011;6861;46.170;7.222;2023-04-25T14:21:26;1.00;;;0.90;;
13580;SDS011;6861;46.170;7.222;2023-04-25T14:23:54;1.75;;;0.90;;
13580;SDS011;6861;46.170;7.222;2023-04-25T14:26:22;2.10;;;1.10;;
13580;SDS011;6861;46.170;7.222;2023-04-25T14:28:51;1.88;;;0.93;;
13580;SDS011;6861;46.170;7.222;2023-04-25T14:31:21;2.22;;;0.75;;
13580;SDS011;6861;46.170;7.222;2023-04-25T14:33:49;1.75;;;0.90;;
13580;SDS011;6861;46.170;7.222;2023-04-25T14:36:18;0.82;;;0.80;;
13580;SDS011;6861;46.170;7.222;2023-04-25T14:38:46;4.57;;;1.10;;
13580;SDS011;6861;46.170;7.222;2023-04-25T14:41:14;1.83;;;1.15;;
13580;SDS011;6861;46.170;7.222;2023-04-25T14:43:43;1.33;;;0.98;;
13580;SDS011;6861;46.170;7.222;2023-04-25T14:46:11;2.45;;;1.00;;
13580;SDS011;6861;46.170;7.222;2023-04-25T14:48:41;2.08;;;0.85;;
13580;SDS011;6861;46.170;7.222;2023-04-25T14:51:10;1.60;;;0.73;;
13580;SDS011;6861;46.170;7.222;2023-04-25T14:53:39;2.08;;;0.80;;
13580;SDS011;6861;46.170;7.222;2023-04-25T14:56:07;1.38;;;1.00;;
13580;SDS011;6861;46.170;7.222;2023-04-25T14:58:36;0.82;;;0.80;;
13580;SDS011;6861;46.170;7.222;2023-04-25T15:01:05;1.67;;;1.00;;
13580;SDS011;6861;46.170;7.222;2023-04-25T15:03:34;1.40;;;0.77;;
13580;SDS011;6861;46.170;7.222;2023-04-25T15:06:05;1.08;;;0.80;;
13580;SDS011;6861;46.170;7.222;2023-04-25T15:08:33;1.50;;;0.95;;
13580;SDS011;6861;46.170;7.222;2023-04-25T15:11:02;2.60;;;0.70;;
13580;SDS011;6861;46.170;7.222;2023-04-25T15:13:31;2.47;;;1.10;;
13580;SDS011;6861;46.170;7.222;2023-04-25T15:16:01;3.40;;;1.17;;
13580;SDS011;6861;46.170;7.222;2023-04-25T15:18:29;2.17;;;1.02;;